sensor_id;sensor_type;location;lat;lon;timestamp;P1;durP1;ratioP1;P2;durP2;ratioP2
41255;SDS011;26989;45.524;10.938;2022-11-20T00:03:39;7.70;;;4.38;;
41255;SDS011;26989;45.524;10.938;2022-11-20T00:06:11;8.55;;;4.10;;
41255;SDS011;26989;45.524;10.938;2022-11-20T00:08:41;7.38;;;4.45;;
41255;SDS011;26989;45.524;10.938;2022-11-20T00:11:15;6.43;;;4.03;;
41255;SDS011;26989;45.524;10.938;2022-11-20T00:13:44;9.27;;;4.22;;
41255;SDS011;26989;45.524;10.938;2022-11-20T00:16:13;5.70;;;3.95;;
41255;SDS011;26989;45.524;10.938;2022-11-20T00:18:41;6.82;;;4.18;;
41255;SDS011;26989;45.524;10.938;2022-11-20T00:23:40;6.57;;;4.32;;
41255;SDS011;26989;45.524;10.938;2022-11-20T00:26:09;8.13;;;3.53;;
41255;SDS011;26989;45.524;10.938;2022-11-20T00:28:38;6.60;;;4.40;;
41255;SDS011;26989;45.524;10.938;2022-11-20T00:31:07;5.38;;;3.70;;
41255;SDS011;26989;45.524;10.938;2022-11-20T00:33:39;5.68;;;3.53;;
41255;SDS011;26989;45.524;10.938;2022-11-20T00:36:12;7.70;;;4.10;;
41255;SDS011;26989;45.524;10.938;2022-11-20T00:38:52;6.70;;;3.60;;
41255;SDS011;26989;45.524;10.938;2022-11-20T00:41:20;9.95;;;4.15;;
41255;SDS011;26989;45.524;10.938;2022-11-20T00:43:47;5.18;;;3.45;;
41255;SDS011;26989;45.524;10.938;2022-11-20T00:46:15;5.97;;;3.05;;
41255;SDS011;26989;45.524;10.938;2022-11-20T00:48:43;7.88;;;3.88;;
41255;SDS011;26989;45.524;10.938;2022-11-20T00:51:12;8.50;;;3.50;;
41255;SDS011;26989;45.524;10.938;2022-11-20T00:53:40;5.85;;;3.97;;
41255;SDS011;26989;45.524;10.938;2022-11-20T00:56:09;7.50;;;3.50;;
41255;SDS011;26989;45.524;10.938;2022-11-20T00:58:39;26.98;;;4.60;;
41255;SDS011;26989;45.524;10.938;2022-11-20T01:01:12;5.70;;;3.85;;
41255;SDS011;26989;45.524;10.938;2022-11-20T01:03:44;5.78;;;3.60;;
41255;SDS011;26989;45.524;10.938;2022-11-20T01:06:25;7.43;;;4.57;;
41255;SDS011;26989;45.524;10.938;2022-11-20T01:08:57;10.15;;;4.63;;
41255;SDS011;26989;45.524;10.938;2022-11-20T01:11:27;11.57;;;6.25;;
41255;SDS011;26989;45.524;10.938;2022-11-20T01:13:56;21.55;;;11.50;;
41255;SDS011;26989;45.524;10.938;2022-11-20T01:16:25;18.33;;;9.07;;
41255;SDS011;26989;45.524;10.938;2022-11-20T01:18:56;14.00;;;8.13;;
41255;SDS011;26989;45.524;10.938;2022-11-20T01:21:27;7.22;;;4.22;;
41255;SDS011;26989;45.524;10.938;2022-11-20T01:23:54;6.57;;;4.00;;
41255;SDS011;26989;45.524;10.938;2022-11-20T01:26:22;6.65;;;4.50;;
41255;SDS011;26989;45.524;10.938;2022-11-20T01:28:51;8.65;;;4.30;;
41255;SDS011;26989;45.524;10.938;2022-11-20T01:31:23;6.53;;;3.58;;
41255;SDS011;26989;45.524;10.938;2022-11-20T01:33:56;5.30;;;3.55;;
41255;SDS011;26989;45.524;10.938;2022-11-20T01:36:26;5.32;;;2.70;;
41255;SDS011;26989;45.524;10.938;2022-11-20T01:38:55;6.30;;;2.90;;
41255;SDS011;26989;45.524;10.938;2022-11-20T01:41:24;5.63;;;2.95;;
41255;SDS011;26989;45.524;10.938;2022-11-20T01:44:11;4.85;;;3.05;;
41255;SDS011;26989;45.524;10.938;2022-11-20T01:46:52;4.57;;;2.95;;
41255;SDS011;26989;45.524;10.938;2022-11-20T01:49:26;4.63;;;3.00;;
41255;SDS011;26989;45.524;10.938;2022-11-20T01:52:01;5.82;;;2.80;;
41255;SDS011;26989;45.524;10.938;2022-11-20T01:54:34;6.05;;;3.28;;
41255;SDS011;26989;45.524;10.938;2022-11-20T01:57:05;5.43;;;2.95;;
41255;SDS011;26989;45.524;10.938;2022-11-20T01:59:37;5.50;;;3.17;;
41255;SDS011;26989;45.524;10.938;2022-11-20T02:02:08;4.38;;;3.03;;
41255;SDS011;26989;45.524;10.938;2022-11-20T02:04:35;6.45;;;3.17;;
41255;SDS011;26989;45.524;10.938;2022-11-20T02:07:03;5.60;;;3.00;;
41255;SDS011;26989;45.524;10.938;2022-11-20T02:09:34;4.75;;;3.08;;
41255;SDS011;26989;45.524;10.938;2022-11-20T02:12:00;6.80;;;3.55;;
41255;SDS011;26989;45.524;10.938;2022-11-20T02:14:29;5.55;;;2.95;;
41255;SDS011;26989;45.524;10.938;2022-11-20T02:16:56;4.80;;;2.90;;
41255;SDS011;26989;45.524;10.938;2022-11-20T02:19:27;5.68;;;3.38;;
41255;SDS011;26989;45.524;10.938;2022-11-20T02:22:02;7.28;;;3.15;;
41255;SDS011;26989;45.524;10.938;2022-11-20T02:24:45;6.28;;;3.05;;
41255;SDS011;26989;45.524;10.938;2022-11-20T02:27:14;6.00;;;3.45;;
41255;SDS011;26989;45.524;10.938;2022-11-20T02:29:46;6.50;;;3.20;;
41255;SDS011;26989;45.524;10.938;2022-11-20T02:32:25;5.53;;;3.40;;
41255;SDS011;26989;45.524;10.938;2022-11-20T02:34:57;4.63;;;2.80;;
41255;SDS011;26989;45.524;10.938;2022-11-20T02:37:26;3.80;;;2.13;;
41255;SDS011;26989;45.524;10.938;2022-11-20T02:39:58;3.85;;;2.35;;
41255;SDS011;26989;45.524;10.938;2022-11-20T02:42:25;4.80;;;2.60;;
41255;SDS011;26989;45.524;10.938;2022-11-20T02:44:52;5.90;;;2.63;;
41255;SDS011;26989;45.524;10.938;2022-11-20T02:47:19;3.30;;;1.90;;
41255;SDS011;26989;45.524;10.938;2022-11-20T02:49:46;3.97;;;2.25;;
41255;SDS011;26989;45.524;10.938;2022-11-20T02:52:13;4.35;;;2.28;;
41255;SDS011;26989;45.524;10.938;2022-11-20T02:54:40;4.22;;;2.45;;
41255;SDS011;26989;45.524;10.938;2022-11-20T02:57:07;4.82;;;1.98;;
41255;SDS011;26989;45.524;10.938;2022-11-20T02:59:34;4.70;;;2.28;;
41255;SDS011;26989;45.524;10.938;2022-11-20T03:02:01;3.15;;;1.80;;
41255;SDS011;26989;45.524;10.938;2022-11-20T03:04:28;3.58;;;2.03;;
41255;SDS011;26989;45.524;10.938;2022-11-20T03:06:54;4.45;;;2.03;;
41255;SDS011;26989;45.524;10.938;2022-11-20T03:09:21;2.72;;;1.92;;
41255;SDS011;26989;45.524;10.938;2022-11-20T03:11:49;3.03;;;2.00;;
41255;SDS011;26989;45.524;10.938;2022-11-20T03:14:16;3.75;;;2.17;;
41255;SDS011;26989;45.524;10.938;2022-11-20T03:16:42;5.38;;;2.78;;
41255;SDS011;26989;45.524;10.938;2022-11-20T03:19:09;6.47;;;3.15;;
41255;SDS011;26989;45.524;10.938;2022-11-20T03:21:37;6.88;;;3.25;;
41255;SDS011;26989;45.524;10.938;2022-11-20T03:24:04;7.10;;;3.50;;
41255;SDS011;26989;45.524;10.938;2022-11-20T03:26:32;1.98;;;1.23;;
41255;SDS011;26989;45.524;10.938;2022-11-20T03:29:00;2.00;;;1.42;;
41255;SDS011;26989;45.524;10.938;2022-11-20T03:31:35;1.55;;;1.00;;
41255;SDS011;26989;45.524;10.938;2022-11-20T03:34:06;2.97;;;1.13;;
41255;SDS011;26989;45.524;10.938;2022-11-20T03:36:34;2.83;;;0.95;;
41255;SDS011;26989;45.524;10.938;2022-11-20T03:39:03;2.28;;;0.93;;
41255;SDS011;26989;45.524;10.938;2022-11-20T03:41:31;1.20;;;0.82;;
41255;SDS011;26989;45.524;10.938;2022-11-20T03:44:02;1.38;;;0.80;;
41255;SDS011;26989;45.524;10.938;2022-11-20T03:46:30;1.60;;;0.70;;
41255;SDS011;26989;45.524;10.938;2022-11-20T03:48:58;0.80;;;0.50;;
41255;SDS011;26989;45.524;10.938;2022-11-20T03:51:29;2.05;;;0.93;;
41255;SDS011;26989;45.524;10.938;2022-11-20T03:53:58;2.55;;;1.02;;
41255;SDS011;26989;45.524;10.938;2022-11-20T03:56:28;1.42;;;0.75;;
41255;SDS011;26989;45.524;10.938;2022-11-20T03:58:57;1.20;;;0.75;;
41255;SDS011;26989;45.524;10.938;2022-11-20T04:01:28;1.67;;;0.82;;
41255;SDS011;26989;45.524;10.938;2022-11-20T04:04:00;1.67;;;0.80;;
41255;SDS011;26989;45.524;10.938;2022-11-20T04:06:28;0.88;;;0.50;;
41255;SDS011;26989;45.524;10.938;2022-11-20T04:08:57;1.42;;;0.70;;
41255;SDS011;26989;45.524;10.938;2022-11-20T04:11:25;1.35;;;0.80;;
41255;SDS011;26989;45.524;10.938;2022-11-20T04:13:55;0.82;;;0.40;;
41255;SDS011;26989;45.524;10.938;2022-11-20T04:16:23;0.77;;;0.50;;
41255;SDS011;26989;45.524;10.938;2022-11-20T04:18:52;1.75;;;0.50;;
41255;SDS011;26989;45.524;10.938;2022-11-20T04:21:20;1.35;;;0.75;;
41255;SDS011;26989;45.524;10.938;2022-11-20T04:23:47;0.50;;;0.40;;
41255;SDS011;26989;45.524;10.938;2022-11-20T04:26:15;1.13;;;0.57;;
41255;SDS011;26989;45.524;10.938;2022-11-20T04:28:42;1.13;;;0.60;;
41255;SDS011;26989;45.524;10.938;2022-11-20T04:31:13;0.95;;;0.50;;
41255;SDS011;26989;45.524;10.938;2022-11-20T04:33:42;2.60;;;0.60;;
41255;SDS011;26989;45.524;10.938;2022-11-20T04:36:10;1.65;;;0.90;;
41255;SDS011;26989;45.524;10.938;2022-11-20T04:38:42;1.15;;;0.63;;
41255;SDS011;26989;45.524;10.938;2022-11-20T04:41:12;1.65;;;0.55;;
41255;SDS011;26989;45.524;10.938;2022-11-20T04:43:45;1.05;;;0.60;;
41255;SDS011;26989;45.524;10.938;2022-11-20T04:46:14;1.60;;;0.68;;
41255;SDS011;26989;45.524;10.938;2022-11-20T04:48:42;1.52;;;0.63;;
41255;SDS011;26989;45.524;10.938;2022-11-20T04:51:09;2.17;;;0.82;;
41255;SDS011;26989;45.524;10.938;2022-11-20T04:53:36;2.20;;;0.90;;
41255;SDS011;26989;45.524;10.938;2022-11-20T04:56:04;1.27;;;0.80;;
41255;SDS011;26989;45.524;10.938;2022-11-20T04:58:33;2.50;;;1.05;;
41255;SDS011;26989;45.524;10.938;2022-11-20T05:01:11;4.13;;;1.35;;
41255;SDS011;26989;45.524;10.938;2022-11-20T05:03:40;0.93;;;0.65;;
41255;SDS011;26989;45.524;10.938;2022-11-20T05:06:08;2.13;;;0.75;;
41255;SDS011;26989;45.524;10.938;2022-11-20T05:08:37;1.60;;;0.90;;
41255;SDS011;26989;45.524;10.938;2022-11-20T05:11:05;2.03;;;1.23;;
41255;SDS011;26989;45.524;10.938;2022-11-20T05:13:34;3.80;;;1.10;;
41255;SDS011;26989;45.524;10.938;2022-11-20T05:16:03;2.42;;;1.20;;
41255;SDS011;26989;45.524;10.938;2022-11-20T05:18:31;1.80;;;1.08;;
41255;SDS011;26989;45.524;10.938;2022-11-20T05:20:58;1.73;;;1.20;;
41255;SDS011;26989;45.524;10.938;2022-11-20T05:23:26;2.15;;;1.25;;
41255;SDS011;26989;45.524;10.938;2022-11-20T05:25:54;2.47;;;1.55;;
41255;SDS011;26989;45.524;10.938;2022-11-20T05:28:24;5.75;;;1.33;;
41255;SDS011;26989;45.524;10.938;2022-11-20T05:30:52;2.42;;;1.60;;
41255;SDS011;26989;45.524;10.938;2022-11-20T05:33:19;2.47;;;1.40;;
41255;SDS011;26989;45.524;10.938;2022-11-20T05:35:47;8.38;;;1.90;;
41255;SDS011;26989;45.524;10.938;2022-11-20T05:38:14;2.47;;;1.40;;
41255;SDS011;26989;45.524;10.938;2022-11-20T05:40:42;2.55;;;1.33;;
41255;SDS011;26989;45.524;10.938;2022-11-20T05:43:09;1.92;;;1.50;;
41255;SDS011;26989;45.524;10.938;2022-11-20T05:45:36;2.00;;;1.25;;
41255;SDS011;26989;45.524;10.938;2022-11-20T05:48:03;4.10;;;1.50;;
41255;SDS011;26989;45.524;10.938;2022-11-20T05:50:30;3.60;;;1.60;;
41255;SDS011;26989;45.524;10.938;2022-11-20T05:53:00;2.85;;;1.55;;
41255;SDS011;26989;45.524;10.938;2022-11-20T05:55:27;4.68;;;1.48;;
41255;SDS011;26989;45.524;10.938;2022-11-20T05:57:54;4.60;;;1.75;;
41255;SDS011;26989;45.524;10.938;2022-11-20T06:00:21;5.28;;;1.58;;
41255;SDS011;26989;45.524;10.938;2022-11-20T06:02:48;2.42;;;1.70;;
41255;SDS011;26989;45.524;10.938;2022-11-20T06:05:15;6.03;;;1.73;;
41255;SDS011;26989;45.524;10.938;2022-11-20T06:07:42;2.70;;;1.42;;
41255;SDS011;26989;45.524;10.938;2022-11-20T06:10:09;3.17;;;1.85;;
41255;SDS011;26989;45.524;10.938;2022-11-20T06:12:36;3.83;;;1.83;;
41255;SDS011;26989;45.524;10.938;2022-11-20T06:15:04;3.22;;;1.90;;
41255;SDS011;26989;45.524;10.938;2022-11-20T06:17:31;4.35;;;2.30;;
41255;SDS011;26989;45.524;10.938;2022-11-20T06:19:58;2.33;;;1.80;;
41255;SDS011;26989;45.524;10.938;2022-11-20T06:22:25;3.63;;;1.95;;
41255;SDS011;26989;45.524;10.938;2022-11-20T06:24:52;4.43;;;2.55;;
41255;SDS011;26989;45.524;10.938;2022-11-20T06:27:19;5.00;;;2.75;;
41255;SDS011;26989;45.524;10.938;2022-11-20T06:29:46;4.38;;;2.50;;
41255;SDS011;26989;45.524;10.938;2022-11-20T06:32:13;4.93;;;2.33;;
41255;SDS011;26989;45.524;10.938;2022-11-20T06:34:40;4.32;;;2.67;;
41255;SDS011;26989;45.524;10.938;2022-11-20T06:37:07;5.95;;;3.00;;
41255;SDS011;26989;45.524;10.938;2022-11-20T06:39:33;4.00;;;2.38;;
41255;SDS011;26989;45.524;10.938;2022-11-20T06:42:01;4.75;;;2.53;;
41255;SDS011;26989;45.524;10.938;2022-11-20T06:44:28;5.65;;;2.80;;
41255;SDS011;26989;45.524;10.938;2022-11-20T06:46:54;4.57;;;2.45;;
41255;SDS011;26989;45.524;10.938;2022-11-20T06:49:21;7.60;;;3.35;;
41255;SDS011;26989;45.524;10.938;2022-11-20T06:51:48;5.72;;;2.90;;
41255;SDS011;26989;45.524;10.938;2022-11-20T06:54:15;4.22;;;2.50;;
41255;SDS011;26989;45.524;10.938;2022-11-20T06:56:42;6.50;;;3.03;;
41255;SDS011;26989;45.524;10.938;2022-11-20T06:59:14;3.65;;;2.38;;
41255;SDS011;26989;45.524;10.938;2022-11-20T07:01:41;5.07;;;2.85;;
41255;SDS011;26989;45.524;10.938;2022-11-20T07:04:07;4.15;;;2.70;;
41255;SDS011;26989;45.524;10.938;2022-11-20T07:06:34;5.05;;;2.60;;
41255;SDS011;26989;45.524;10.938;2022-11-20T07:09:01;4.38;;;2.70;;
41255;SDS011;26989;45.524;10.938;2022-11-20T07:14:00;6.88;;;3.42;;
41255;SDS011;26989;45.524;10.938;2022-11-20T07:16:27;7.80;;;3.30;;
41255;SDS011;26989;45.524;10.938;2022-11-20T07:18:55;6.05;;;3.38;;
41255;SDS011;26989;45.524;10.938;2022-11-20T07:21:22;5.82;;;2.50;;
41255;SDS011;26989;45.524;10.938;2022-11-20T07:23:49;6.35;;;3.35;;
41255;SDS011;26989;45.524;10.938;2022-11-20T07:26:16;4.60;;;2.72;;
41255;SDS011;26989;45.524;10.938;2022-11-20T07:28:46;5.80;;;3.13;;
41255;SDS011;26989;45.524;10.938;2022-11-20T07:31:13;5.95;;;4.00;;
41255;SDS011;26989;45.524;10.938;2022-11-20T07:33:44;4.33;;;2.97;;
41255;SDS011;26989;45.524;10.938;2022-11-20T07:36:11;5.35;;;3.55;;
41255;SDS011;26989;45.524;10.938;2022-11-20T07:38:38;6.55;;;4.13;;
41255;SDS011;26989;45.524;10.938;2022-11-20T07:41:05;5.78;;;3.40;;
41255;SDS011;26989;45.524;10.938;2022-11-20T07:43:32;6.00;;;3.58;;
41255;SDS011;26989;45.524;10.938;2022-11-20T07:46:06;6.57;;;3.90;;
41255;SDS011;26989;45.524;10.938;2022-11-20T07:48:34;10.60;;;3.88;;
41255;SDS011;26989;45.524;10.938;2022-11-20T07:51:01;7.93;;;3.70;;
41255;SDS011;26989;45.524;10.938;2022-11-20T07:53:28;8.40;;;5.30;;
41255;SDS011;26989;45.524;10.938;2022-11-20T07:55:54;10.80;;;6.20;;
41255;SDS011;26989;45.524;10.938;2022-11-20T07:58:25;10.85;;;6.68;;
41255;SDS011;26989;45.524;10.938;2022-11-20T08:00:52;10.10;;;5.97;;
41255;SDS011;26989;45.524;10.938;2022-11-20T08:03:19;7.95;;;5.25;;
41255;SDS011;26989;45.524;10.938;2022-11-20T08:05:50;8.27;;;4.63;;
41255;SDS011;26989;45.524;10.938;2022-11-20T08:08:17;9.13;;;4.90;;
41255;SDS011;26989;45.524;10.938;2022-11-20T08:10:44;6.53;;;4.30;;
41255;SDS011;26989;45.524;10.938;2022-11-20T08:13:11;5.22;;;3.58;;
41255;SDS011;26989;45.524;10.938;2022-11-20T08:15:56;7.50;;;2.83;;
41255;SDS011;26989;45.524;10.938;2022-11-20T08:18:23;3.80;;;2.60;;
41255;SDS011;26989;45.524;10.938;2022-11-20T08:21:01;4.68;;;2.55;;
41255;SDS011;26989;45.524;10.938;2022-11-20T08:23:30;4.00;;;2.30;;
41255;SDS011;26989;45.524;10.938;2022-11-20T08:25:57;3.63;;;1.77;;
41255;SDS011;26989;45.524;10.938;2022-11-20T08:28:23;3.17;;;2.10;;
41255;SDS011;26989;45.524;10.938;2022-11-20T08:30:50;4.72;;;3.17;;
41255;SDS011;26989;45.524;10.938;2022-11-20T08:33:17;5.07;;;3.67;;
41255;SDS011;26989;45.524;10.938;2022-11-20T08:35:44;8.02;;;4.13;;
41255;SDS011;26989;45.524;10.938;2022-11-20T08:38:11;8.93;;;5.22;;
41255;SDS011;26989;45.524;10.938;2022-11-20T08:40:38;7.63;;;4.57;;
41255;SDS011;26989;45.524;10.938;2022-11-20T08:43:05;6.03;;;3.38;;
41255;SDS011;26989;45.524;10.938;2022-11-20T08:45:32;4.90;;;3.78;;
41255;SDS011;26989;45.524;10.938;2022-11-20T08:48:01;3.53;;;2.08;;
41255;SDS011;26989;45.524;10.938;2022-11-20T08:50:29;3.13;;;1.88;;
41255;SDS011;26989;45.524;10.938;2022-11-20T08:53:04;2.55;;;1.85;;
41255;SDS011;26989;45.524;10.938;2022-11-20T08:55:31;4.60;;;2.13;;
41255;SDS011;26989;45.524;10.938;2022-11-20T08:57:58;3.35;;;1.90;;
41255;SDS011;26989;45.524;10.938;2022-11-20T09:00:29;2.97;;;1.67;;
41255;SDS011;26989;45.524;10.938;2022-11-20T09:02:56;4.38;;;1.63;;
41255;SDS011;26989;45.524;10.938;2022-11-20T09:05:24;3.00;;;1.65;;
41255;SDS011;26989;45.524;10.938;2022-11-20T09:07:51;2.38;;;1.75;;
41255;SDS011;26989;45.524;10.938;2022-11-20T09:10:20;3.95;;;2.20;;
41255;SDS011;26989;45.524;10.938;2022-11-20T09:12:50;3.13;;;2.00;;
41255;SDS011;26989;45.524;10.938;2022-11-20T09:15:18;4.82;;;2.00;;
41255;SDS011;26989;45.524;10.938;2022-11-20T09:17:52;2.53;;;2.03;;
41255;SDS011;26989;45.524;10.938;2022-11-20T09:20:19;4.18;;;2.40;;
41255;SDS011;26989;45.524;10.938;2022-11-20T09:22:47;6.07;;;2.83;;
41255;SDS011;26989;45.524;10.938;2022-11-20T09:25:14;4.63;;;2.42;;
41255;SDS011;26989;45.524;10.938;2022-11-20T09:27:41;4.85;;;2.58;;
41255;SDS011;26989;45.524;10.938;2022-11-20T09:30:10;4.85;;;2.50;;
41255;SDS011;26989;45.524;10.938;2022-11-20T09:32:40;4.03;;;2.45;;
41255;SDS011;26989;45.524;10.938;2022-11-20T09:35:07;5.15;;;3.03;;
41255;SDS011;26989;45.524;10.938;2022-11-20T09:37:35;8.35;;;3.03;;
41255;SDS011;26989;45.524;10.938;2022-11-20T09:40:02;6.63;;;2.72;;
41255;SDS011;26989;45.524;10.938;2022-11-20T09:51:01;6.70;;;2.70;;
41255;SDS011;26989;45.524;10.938;2022-11-20T09:53:50;3.58;;;2.00;;
41255;SDS011;26989;45.524;10.938;2022-11-20T09:56:26;4.22;;;2.30;;
41255;SDS011;26989;45.524;10.938;2022-11-20T09:58:55;4.10;;;1.75;;
41255;SDS011;26989;45.524;10.938;2022-11-20T10:01:26;4.30;;;1.98;;
41255;SDS011;26989;45.524;10.938;2022-11-20T10:04:32;3.88;;;1.95;;
41255;SDS011;26989;45.524;10.938;2022-11-20T10:06:56;4.78;;;1.98;;
41255;SDS011;26989;45.524;10.938;2022-11-20T10:09:57;2.85;;;1.80;;
41255;SDS011;26989;45.524;10.938;2022-11-20T10:12:39;3.90;;;2.03;;
41255;SDS011;26989;45.524;10.938;2022-11-20T10:18:18;3.55;;;1.85;;
41255;SDS011;26989;45.524;10.938;2022-11-20T10:26:02;2.15;;;1.52;;
41255;SDS011;26989;45.524;10.938;2022-11-20T10:31:28;2.95;;;1.63;;
41255;SDS011;26989;45.524;10.938;2022-11-20T10:34:23;3.60;;;1.80;;
41255;SDS011;26989;45.524;10.938;2022-11-20T10:37:08;5.68;;;2.20;;
41255;SDS011;26989;45.524;10.938;2022-11-20T10:42:44;2.70;;;1.27;;
41255;SDS011;26989;45.524;10.938;2022-11-20T10:45:16;4.75;;;2.65;;
41255;SDS011;26989;45.524;10.938;2022-11-20T10:48:09;4.00;;;1.83;;
41255;SDS011;26989;45.524;10.938;2022-11-20T10:50:54;8.32;;;2.75;;
41255;SDS011;26989;45.524;10.938;2022-11-20T10:59:24;4.97;;;2.17;;
41255;SDS011;26989;45.524;10.938;2022-11-20T11:01:57;5.85;;;3.20;;
41255;SDS011;26989;45.524;10.938;2022-11-20T11:09:48;3.20;;;1.70;;
41255;SDS011;26989;45.524;10.938;2022-11-20T11:12:19;3.20;;;1.40;;
41255;SDS011;26989;45.524;10.938;2022-11-20T11:17:29;2.03;;;1.13;;
41255;SDS011;26989;45.524;10.938;2022-11-20T11:22:25;3.35;;;1.65;;
41255;SDS011;26989;45.524;10.938;2022-11-20T11:24:54;2.75;;;1.20;;
41255;SDS011;26989;45.524;10.938;2022-11-20T11:27:21;2.80;;;1.48;;
41255;SDS011;26989;45.524;10.938;2022-11-20T11:29:48;4.15;;;1.60;;
41255;SDS011;26989;45.524;10.938;2022-11-20T11:32:19;4.32;;;3.35;;
41255;SDS011;26989;45.524;10.938;2022-11-20T11:35:11;3.30;;;1.77;;
41255;SDS011;26989;45.524;10.938;2022-11-20T11:38:01;3.55;;;1.60;;
41255;SDS011;26989;45.524;10.938;2022-11-20T11:40:31;4.20;;;1.58;;
41255;SDS011;26989;45.524;10.938;2022-11-20T11:43:02;2.55;;;1.65;;
41255;SDS011;26989;45.524;10.938;2022-11-20T11:45:54;2.40;;;1.63;;
41255;SDS011;26989;45.524;10.938;2022-11-20T11:48:22;5.78;;;1.92;;
41255;SDS011;26989;45.524;10.938;2022-11-20T11:50:50;9.10;;;1.42;;
41255;SDS011;26989;45.524;10.938;2022-11-20T11:53:18;3.00;;;1.15;;
41255;SDS011;26989;45.524;10.938;2022-11-20T11:58:41;5.97;;;1.67;;
41255;SDS011;26989;45.524;10.938;2022-11-20T12:07:20;2.92;;;1.67;;
41255;SDS011;26989;45.524;10.938;2022-11-20T12:10:17;3.58;;;1.98;;
41255;SDS011;26989;45.524;10.938;2022-11-20T12:12:46;12.32;;;3.00;;
41255;SDS011;26989;45.524;10.938;2022-11-20T12:17:57;4.47;;;2.00;;
41255;SDS011;26989;45.524;10.938;2022-11-20T12:20:33;4.15;;;2.13;;
41255;SDS011;26989;45.524;10.938;2022-11-20T12:23:09;4.07;;;2.30;;
41255;SDS011;26989;45.524;10.938;2022-11-20T12:25:52;3.42;;;2.20;;
41255;SDS011;26989;45.524;10.938;2022-11-20T12:30:57;7.57;;;2.95;;
41255;SDS011;26989;45.524;10.938;2022-11-20T12:33:41;3.53;;;2.25;;
41255;SDS011;26989;45.524;10.938;2022-11-20T12:36:32;4.00;;;2.42;;
41255;SDS011;26989;45.524;10.938;2022-11-20T12:39:05;5.30;;;2.53;;
41255;SDS011;26989;45.524;10.938;2022-11-20T12:56:54;9.27;;;3.80;;
41255;SDS011;26989;45.524;10.938;2022-11-20T13:02:36;7.10;;;3.83;;
41255;SDS011;26989;45.524;10.938;2022-11-20T13:08:08;6.75;;;4.13;;
41255;SDS011;26989;45.524;10.938;2022-11-20T13:10:51;7.93;;;3.70;;
41255;SDS011;26989;45.524;10.938;2022-11-20T13:13:41;6.70;;;4.03;;
41255;SDS011;26989;45.524;10.938;2022-11-20T13:16:33;5.82;;;4.18;;
41255;SDS011;26989;45.524;10.938;2022-11-20T13:19:19;6.10;;;4.07;;
41255;SDS011;26989;45.524;10.938;2022-11-20T13:21:48;7.95;;;4.35;;
41255;SDS011;26989;45.524;10.938;2022-11-20T13:26:46;7.20;;;4.05;;
41255;SDS011;26989;45.524;10.938;2022-11-20T13:29:18;6.47;;;4.35;;
41255;SDS011;26989;45.524;10.938;2022-11-20T13:31:48;9.40;;;5.85;;
41255;SDS011;26989;45.524;10.938;2022-11-20T13:34:23;8.35;;;4.55;;
41255;SDS011;26989;45.524;10.938;2022-11-20T13:36:53;7.88;;;4.63;;
41255;SDS011;26989;45.524;10.938;2022-11-20T13:39:35;6.93;;;4.65;;
41255;SDS011;26989;45.524;10.938;2022-11-20T13:42:18;9.80;;;4.68;;
41255;SDS011;26989;45.524;10.938;2022-11-20T13:44:53;9.05;;;5.32;;
41255;SDS011;26989;45.524;10.938;2022-11-20T13:47:22;9.25;;;5.47;;
41255;SDS011;26989;45.524;10.938;2022-11-20T13:52:43;11.70;;;5.78;;
41255;SDS011;26989;45.524;10.938;2022-11-20T14:01:14;18.85;;;12.18;;
41255;SDS011;26989;45.524;10.938;2022-11-20T14:03:45;20.92;;;12.23;;
41255;SDS011;26989;45.524;10.938;2022-11-20T14:06:33;22.65;;;12.98;;
41255;SDS011;26989;45.524;10.938;2022-11-20T14:09:10;22.05;;;13.32;;
41255;SDS011;26989;45.524;10.938;2022-11-20T14:11:50;25.40;;;14.43;;
41255;SDS011;26989;45.524;10.938;2022-11-20T14:14:21;22.98;;;13.75;;
41255;SDS011;26989;45.524;10.938;2022-11-20T14:16:52;25.25;;;15.43;;
41255;SDS011;26989;45.524;10.938;2022-11-20T14:21:46;28.23;;;15.70;;
41255;SDS011;26989;45.524;10.938;2022-11-20T14:24:20;22.33;;;14.90;;
41255;SDS011;26989;45.524;10.938;2022-11-20T14:26:49;21.63;;;14.35;;
41255;SDS011;26989;45.524;10.938;2022-11-20T14:29:27;22.88;;;14.38;;
41255;SDS011;26989;45.524;10.938;2022-11-20T14:34:31;25.70;;;14.98;;
41255;SDS011;26989;45.524;10.938;2022-11-20T14:37:04;25.42;;;14.65;;
41255;SDS011;26989;45.524;10.938;2022-11-20T14:39:42;25.90;;;15.70;;
41255;SDS011;26989;45.524;10.938;2022-11-20T14:42:19;26.33;;;16.08;;
41255;SDS011;26989;45.524;10.938;2022-11-20T14:44:49;24.48;;;16.20;;
41255;SDS011;26989;45.524;10.938;2022-11-20T14:47:19;26.52;;;16.17;;
41255;SDS011;26989;45.524;10.938;2022-11-20T14:49:49;25.02;;;16.35;;
41255;SDS011;26989;45.524;10.938;2022-11-20T14:52:21;26.10;;;17.25;;
41255;SDS011;26989;45.524;10.938;2022-11-20T15:00:03;25.65;;;16.45;;
41255;SDS011;26989;45.524;10.938;2022-11-20T15:02:51;25.52;;;16.58;;
41255;SDS011;26989;45.524;10.938;2022-11-20T15:05:20;25.27;;;16.38;;
41255;SDS011;26989;45.524;10.938;2022-11-20T15:07:50;25.33;;;17.50;;
41255;SDS011;26989;45.524;10.938;2022-11-20T15:10:32;23.17;;;15.75;;
41255;SDS011;26989;45.524;10.938;2022-11-20T15:13:00;26.05;;;16.85;;
41255;SDS011;26989;45.524;10.938;2022-11-20T15:15:39;29.25;;;18.50;;
41255;SDS011;26989;45.524;10.938;2022-11-20T15:18:26;28.05;;;17.70;;
41255;SDS011;26989;45.524;10.938;2022-11-20T15:20:57;28.15;;;18.55;;
41255;SDS011;26989;45.524;10.938;2022-11-20T15:23:29;26.63;;;18.02;;
41255;SDS011;26989;45.524;10.938;2022-11-20T15:25:56;26.55;;;17.88;;
41255;SDS011;26989;45.524;10.938;2022-11-20T15:28:29;30.20;;;17.85;;
41255;SDS011;26989;45.524;10.938;2022-11-20T15:31:01;31.05;;;19.70;;
41255;SDS011;26989;45.524;10.938;2022-11-20T15:33:29;30.10;;;19.45;;
41255;SDS011;26989;45.524;10.938;2022-11-20T15:35:58;32.13;;;21.75;;
41255;SDS011;26989;45.524;10.938;2022-11-20T15:38:25;33.85;;;21.40;;
41255;SDS011;26989;45.524;10.938;2022-11-20T15:40:52;33.03;;;22.30;;
41255;SDS011;26989;45.524;10.938;2022-11-20T15:43:19;32.80;;;21.88;;
41255;SDS011;26989;45.524;10.938;2022-11-20T15:45:48;32.55;;;21.63;;
41255;SDS011;26989;45.524;10.938;2022-11-20T15:48:18;39.13;;;22.77;;
41255;SDS011;26989;45.524;10.938;2022-11-20T15:51:00;35.25;;;23.33;;
41255;SDS011;26989;45.524;10.938;2022-11-20T15:53:37;42.53;;;25.40;;
41255;SDS011;26989;45.524;10.938;2022-11-20T15:56:09;39.15;;;24.83;;
41255;SDS011;26989;45.524;10.938;2022-11-20T15:58:43;35.88;;;24.63;;
41255;SDS011;26989;45.524;10.938;2022-11-20T16:01:10;39.83;;;25.25;;
41255;SDS011;26989;45.524;10.938;2022-11-20T16:03:39;83.82;;;53.35;;
41255;SDS011;26989;45.524;10.938;2022-11-20T16:06:07;58.20;;;34.25;;
41255;SDS011;26989;45.524;10.938;2022-11-20T16:08:34;38.28;;;24.75;;
41255;SDS011;26989;45.524;10.938;2022-11-20T16:11:02;40.60;;;23.70;;
41255;SDS011;26989;45.524;10.938;2022-11-20T16:13:30;39.20;;;23.63;;
41255;SDS011;26989;45.524;10.938;2022-11-20T16:16:22;38.63;;;24.25;;
41255;SDS011;26989;45.524;10.938;2022-11-20T16:18:56;39.38;;;22.27;;
41255;SDS011;26989;45.524;10.938;2022-11-20T16:21:23;37.42;;;22.42;;
41255;SDS011;26989;45.524;10.938;2022-11-20T16:23:57;40.58;;;24.88;;
41255;SDS011;26989;45.524;10.938;2022-11-20T16:26:28;41.17;;;23.33;;
41255;SDS011;26989;45.524;10.938;2022-11-20T16:28:55;37.80;;;23.02;;
41255;SDS011;26989;45.524;10.938;2022-11-20T16:31:22;38.33;;;24.00;;
41255;SDS011;26989;45.524;10.938;2022-11-20T16:33:51;38.88;;;22.25;;
41255;SDS011;26989;45.524;10.938;2022-11-20T16:36:20;42.55;;;23.00;;